Terminal Aerodrome Forecast
Issued by NWS

Home | Current Version | Previous Version | Text Only | Print | Product List | Glossary On
Versions: 1 2 3 4 5 6 7 8 9 10 11 12 13 14 15 16
343
FTUS43 KGRB 311910 AAA
TAFATW
TAF AMD
KATW 311910Z 3119/0118 08010G16KT P6SM BKN100
     FM312000 10006KT P6SM VCSH SCT040 OVC080
      TEMPO 3120/3124 4SM -SHRA BKN040
     FM010400 14007KT 6SM -SHRA BKN035 OVC070 WS009/16035KT
      TEMPO 0107/0111 3SM -TSRA BR BKN022CB
     FM011100 16007KT 4SM -SHRA BR BKN012
     FM011500 18009G14KT 5SM HZ BKN030=

USA.gov is the U.S. government's official web portal to all federal, state and local government web resources and services.